Terminal Aerodrome Forecast
Issued by NWS Charleston, WV

Home | Current Version | Previous Version | Text Only | Print | Product List | Glossary On
Versions: 1 2 3 4 5 6 7 8 9 10 11 12 13 14 15 16 17 18 19 20 21 22 23 24 25 26
000
FTUS41 KRLX 251500 AAA
TAFCRW
TAF AMD
KCRW 251507Z 2515/2612 23005KT P6SM SCT250
     FM251700 23010KT P6SM BKN040
     FM260400 26004KT P6SM BKN025
     FM260700 29004KT P6SM SCT250=

USA.gov is the U.S. government's official web portal to all federal, state and local government web resources and services.